This is the latest recevied weather packets stored in our database for station/object F4FTJ-13. If no packets are shown the sender has not sent any weather packets the latest 10 day(s).
| Time | Temp. | Humidity | Pressure | Rain* | Wind** | Luminosity | Snow |
|---|---|---|---|---|---|---|---|
| 1778241037 | 21.67° C | 59% | 1013.6 hPa | 0 mm | - | - | - |
| 1778234437 | 19.44° C | 64% | 1014.4 hPa | 0 mm | - | - | - |
| 1778233837 | 19.44° C | 63% | 1014.7 hPa | 0 mm | - | - | - |
| 1778232638 | 18.89° C | 67% | 1014.3 hPa | 0 mm | - | - | - |
| 1778230537 | 18.33° C | 69% | 1014.4 hPa | 0 mm | - | - | - |
| 1778229638 | 18.33° C | 71% | 1014.6 hPa | 0 mm | - | - | - |
| 1778224837 | 15.56° C | 80% | 1014.1 hPa | 0 mm | - | - | - |
| 1778222138 | 14.44° C | 83% | 1013.9 hPa | 0 mm | - | - | - |
| 1778215537 | 8.33° C | 99% | 1013.9 hPa | 0 mm | - | - | - |
| 1778211637 | 8.89° C | 99% | 1014 hPa | 0 mm | - | - | - |
| 1778210737 | 8.89° C | 99% | 1014.2 hPa | 0 mm | - | - | - |
| 1778209237 | 8.89° C | 99% | 1013.9 hPa | 0 mm | - | - | - |
| 1778207137 | 8.33° C | 99% | 1014.1 hPa | 0 mm | - | - | - |
| 1778202937 | 7.78° C | 99% | 1014.1 hPa | 0 mm | - | - | - |
| 1778199038 | 8.33° C | 99% | 1014.2 hPa | 0 mm | - | - | - |
| 1778198437 | 8.33° C | 99% | 1014.4 hPa | 0 mm | - | - | - |
| 1778197837 | 8.33° C | 99% | 1014.2 hPa | 0 mm | - | - | - |
| 1778197538 | 8.33° C | 99% | 1014.4 hPa | 0 mm | - | - | - |
| 1778196037 | 8.89° C | 99% | 1014.6 hPa | 0 mm | - | - | - |
| 1778194837 | 9.44° C | 98% | 1014.4 hPa | 0 mm | - | - | - |
| 1778193937 | 9.44° C | 98% | 1014.5 hPa | 0 mm | - | - | - |
| 1778193637 | 9.44° C | 98% | 1014.5 hPa | 0 mm | - | - | - |
| 1778191239 | 10.56° C | 97% | 1014.3 hPa | 0 mm | - | - | - |
| 1778189738 | 11.11° C | 98% | 1014.3 hPa | 0 mm | - | - | - |
| 1778187037 | 11.67° C | 96% | 1014 hPa | 0 mm | - | - | - |
* Rain latest hour (hover to see other rain measurements)
** Current wind speed in m/s (hover to see current wind gust speed)